sensor_id;sensor_type;location;lat;lon;timestamp;P1;durP1;ratioP1;P2;durP2;ratioP2
42662;SDS011;44330;51.360;6.686;2023-01-29T00:01:07;76.50;;;32.15;;
42662;SDS011;44330;51.360;6.686;2023-01-29T00:03:33;78.75;;;33.00;;
42662;SDS011;44330;51.360;6.686;2023-01-29T00:06:00;76.80;;;33.15;;
42662;SDS011;44330;51.360;6.686;2023-01-29T00:08:31;83.00;;;33.92;;
42662;SDS011;44330;51.360;6.686;2023-01-29T00:11:02;82.95;;;34.92;;
42662;SDS011;44330;51.360;6.686;2023-01-29T00:13:31;78.90;;;33.45;;
42662;SDS011;44330;51.360;6.686;2023-01-29T00:15:58;80.47;;;34.78;;
42662;SDS011;44330;51.360;6.686;2023-01-29T00:18:25;90.18;;;36.10;;
42662;SDS011;44330;51.360;6.686;2023-01-29T00:20:52;84.10;;;34.40;;
42662;SDS011;44330;51.360;6.686;2023-01-29T00:23:18;87.38;;;35.13;;
42662;SDS011;44330;51.360;6.686;2023-01-29T00:25:44;80.32;;;34.53;;
42662;SDS011;44330;51.360;6.686;2023-01-29T00:28:10;83.07;;;34.97;;
42662;SDS011;44330;51.360;6.686;2023-01-29T00:30:36;84.88;;;34.75;;
42662;SDS011;44330;51.360;6.686;2023-01-29T00:33:03;93.53;;;36.88;;
42662;SDS011;44330;51.360;6.686;2023-01-29T00:35:29;86.60;;;35.85;;
42662;SDS011;44330;51.360;6.686;2023-01-29T00:37:55;86.95;;;36.08;;
42662;SDS011;44330;51.360;6.686;2023-01-29T00:40:21;85.07;;;34.92;;
42662;SDS011;44330;51.360;6.686;2023-01-29T00:42:47;82.07;;;35.53;;
42662;SDS011;44330;51.360;6.686;2023-01-29T00:45:32;89.63;;;34.67;;
42662;SDS011;44330;51.360;6.686;2023-01-29T00:47:58;88.20;;;36.33;;
42662;SDS011;44330;51.360;6.686;2023-01-29T00:50:23;84.32;;;35.25;;
42662;SDS011;44330;51.360;6.686;2023-01-29T00:52:49;83.82;;;35.40;;
42662;SDS011;44330;51.360;6.686;2023-01-29T00:55:16;88.07;;;37.05;;
42662;SDS011;44330;51.360;6.686;2023-01-29T00:57:42;86.22;;;35.60;;
42662;SDS011;44330;51.360;6.686;2023-01-29T01:00:09;88.50;;;34.17;;
42662;SDS011;44330;51.360;6.686;2023-01-29T01:02:37;94.00;;;36.90;;
42662;SDS011;44330;51.360;6.686;2023-01-29T01:05:21;88.23;;;36.47;;
42662;SDS011;44330;51.360;6.686;2023-01-29T01:07:48;91.13;;;36.15;;
42662;SDS011;44330;51.360;6.686;2023-01-29T01:10:19;90.18;;;36.30;;
42662;SDS011;44330;51.360;6.686;2023-01-29T01:12:55;84.43;;;34.70;;
42662;SDS011;44330;51.360;6.686;2023-01-29T01:15:22;85.53;;;36.10;;
42662;SDS011;44330;51.360;6.686;2023-01-29T01:17:51;81.65;;;34.83;;
42662;SDS011;44330;51.360;6.686;2023-01-29T01:20:18;81.57;;;34.42;;
42662;SDS011;44330;51.360;6.686;2023-01-29T01:22:44;86.70;;;35.05;;
42662;SDS011;44330;51.360;6.686;2023-01-29T01:25:09;87.97;;;34.33;;
42662;SDS011;44330;51.360;6.686;2023-01-29T01:27:35;87.35;;;36.45;;
42662;SDS011;44330;51.360;6.686;2023-01-29T01:30:05;87.50;;;37.33;;
42662;SDS011;44330;51.360;6.686;2023-01-29T01:32:32;89.53;;;35.20;;
42662;SDS011;44330;51.360;6.686;2023-01-29T01:34:58;90.03;;;34.33;;
42662;SDS011;44330;51.360;6.686;2023-01-29T01:37:23;85.32;;;34.15;;
42662;SDS011;44330;51.360;6.686;2023-01-29T01:39:49;90.70;;;34.42;;
42662;SDS011;44330;51.360;6.686;2023-01-29T01:42:15;87.68;;;36.28;;
42662;SDS011;44330;51.360;6.686;2023-01-29T01:47:18;76.20;;;32.58;;
42662;SDS011;44330;51.360;6.686;2023-01-29T01:49:48;80.20;;;33.03;;
42662;SDS011;44330;51.360;6.686;2023-01-29T01:52:13;87.47;;;34.95;;
42662;SDS011;44330;51.360;6.686;2023-01-29T01:54:41;88.13;;;35.40;;
42662;SDS011;44330;51.360;6.686;2023-01-29T01:57:09;85.97;;;35.17;;
42662;SDS011;44330;51.360;6.686;2023-01-29T01:59:42;80.60;;;32.22;;
42662;SDS011;44330;51.360;6.686;2023-01-29T02:02:12;87.32;;;35.67;;
42662;SDS011;44330;51.360;6.686;2023-01-29T02:04:57;80.00;;;32.90;;
42662;SDS011;44330;51.360;6.686;2023-01-29T02:07:42;73.85;;;31.63;;
42662;SDS011;44330;51.360;6.686;2023-01-29T02:10:30;78.65;;;32.45;;
42662;SDS011;44330;51.360;6.686;2023-01-29T02:13:03;78.65;;;32.00;;
42662;SDS011;44330;51.360;6.686;2023-01-29T02:15:30;85.30;;;33.63;;
42662;SDS011;44330;51.360;6.686;2023-01-29T02:17:55;76.78;;;31.42;;
42662;SDS011;44330;51.360;6.686;2023-01-29T02:20:29;76.43;;;31.65;;
42662;SDS011;44330;51.360;6.686;2023-01-29T02:28:46;76.30;;;29.52;;
42662;SDS011;44330;51.360;6.686;2023-01-29T02:31:28;77.40;;;29.80;;
42662;SDS011;44330;51.360;6.686;2023-01-29T02:34:10;74.30;;;30.15;;
42662;SDS011;44330;51.360;6.686;2023-01-29T02:44:54;83.53;;;32.60;;
42662;SDS011;44330;51.360;6.686;2023-01-29T02:47:29;74.45;;;31.30;;
42662;SDS011;44330;51.360;6.686;2023-01-29T02:53:08;74.28;;;29.92;;
42662;SDS011;44330;51.360;6.686;2023-01-29T03:00:59;83.75;;;31.65;;
42662;SDS011;44330;51.360;6.686;2023-01-29T03:03:32;74.72;;;30.05;;
42662;SDS011;44330;51.360;6.686;2023-01-29T03:06:10;67.83;;;28.73;;
42662;SDS011;44330;51.360;6.686;2023-01-29T03:11:58;78.20;;;30.37;;
42662;SDS011;44330;51.360;6.686;2023-01-29T03:14:42;72.00;;;29.02;;
42662;SDS011;44330;51.360;6.686;2023-01-29T03:17:32;73.50;;;29.93;;
42662;SDS011;44330;51.360;6.686;2023-01-29T03:20:02;76.15;;;29.80;;
42662;SDS011;44330;51.360;6.686;2023-01-29T03:22:33;70.32;;;27.55;;
42662;SDS011;44330;51.360;6.686;2023-01-29T03:25:00;71.95;;;28.45;;
42662;SDS011;44330;51.360;6.686;2023-01-29T03:27:51;77.13;;;28.85;;
42662;SDS011;44330;51.360;6.686;2023-01-29T03:30:40;80.07;;;28.33;;
42662;SDS011;44330;51.360;6.686;2023-01-29T03:33:27;66.60;;;27.00;;
42662;SDS011;44330;51.360;6.686;2023-01-29T03:36:01;68.47;;;26.63;;
42662;SDS011;44330;51.360;6.686;2023-01-29T03:38:32;67.88;;;25.73;;
42662;SDS011;44330;51.360;6.686;2023-01-29T03:40:59;74.18;;;27.95;;
42662;SDS011;44330;51.360;6.686;2023-01-29T03:46:38;69.93;;;28.88;;
42662;SDS011;44330;51.360;6.686;2023-01-29T03:49:19;68.25;;;26.35;;
42662;SDS011;44330;51.360;6.686;2023-01-29T03:51:57;80.78;;;28.27;;
42662;SDS011;44330;51.360;6.686;2023-01-29T03:54:45;71.80;;;27.30;;
42662;SDS011;44330;51.360;6.686;2023-01-29T03:57:27;79.37;;;28.00;;
42662;SDS011;44330;51.360;6.686;2023-01-29T04:02:34;74.43;;;26.58;;
42662;SDS011;44330;51.360;6.686;2023-01-29T04:05:10;75.00;;;27.35;;
42662;SDS011;44330;51.360;6.686;2023-01-29T04:07:40;74.13;;;26.67;;
42662;SDS011;44330;51.360;6.686;2023-01-29T04:10:10;83.80;;;27.00;;
42662;SDS011;44330;51.360;6.686;2023-01-29T04:15:39;77.43;;;28.80;;
42662;SDS011;44330;51.360;6.686;2023-01-29T04:18:09;79.32;;;27.30;;
42662;SDS011;44330;51.360;6.686;2023-01-29T04:20:35;78.60;;;28.55;;
42662;SDS011;44330;51.360;6.686;2023-01-29T04:23:04;79.60;;;28.50;;
42662;SDS011;44330;51.360;6.686;2023-01-29T04:25:33;78.50;;;27.60;;
42662;SDS011;44330;51.360;6.686;2023-01-29T04:28:22;83.68;;;30.23;;
42662;SDS011;44330;51.360;6.686;2023-01-29T04:30:53;77.57;;;27.08;;
42662;SDS011;44330;51.360;6.686;2023-01-29T04:33:33;75.18;;;28.20;;
42662;SDS011;44330;51.360;6.686;2023-01-29T04:50:10;90.72;;;30.95;;
42662;SDS011;44330;51.360;6.686;2023-01-29T04:52:49;83.03;;;29.98;;
42662;SDS011;44330;51.360;6.686;2023-01-29T04:55:33;81.72;;;29.55;;
42662;SDS011;44330;51.360;6.686;2023-01-29T04:58:25;81.70;;;29.48;;
42662;SDS011;44330;51.360;6.686;2023-01-29T05:01:01;61.13;;;21.52;;
42662;SDS011;44330;51.360;6.686;2023-01-29T05:03:32;85.70;;;30.75;;
42662;SDS011;44330;51.360;6.686;2023-01-29T05:06:00;79.10;;;30.95;;
42662;SDS011;44330;51.360;6.686;2023-01-29T05:08:26;90.47;;;31.88;;
42662;SDS011;44330;51.360;6.686;2023-01-29T05:10:54;80.90;;;29.00;;
42662;SDS011;44330;51.360;6.686;2023-01-29T05:13:22;78.43;;;29.90;;
42662;SDS011;44330;51.360;6.686;2023-01-29T05:15:55;82.22;;;30.08;;
42662;SDS011;44330;51.360;6.686;2023-01-29T05:18:33;75.32;;;27.73;;
42662;SDS011;44330;51.360;6.686;2023-01-29T05:21:01;85.03;;;29.85;;
42662;SDS011;44330;51.360;6.686;2023-01-29T05:23:29;78.10;;;29.27;;
42662;SDS011;44330;51.360;6.686;2023-01-29T05:25:55;73.22;;;29.50;;
42662;SDS011;44330;51.360;6.686;2023-01-29T05:28:21;81.38;;;29.25;;
42662;SDS011;44330;51.360;6.686;2023-01-29T05:30:48;78.70;;;30.88;;
42662;SDS011;44330;51.360;6.686;2023-01-29T05:35:41;88.05;;;31.88;;
42662;SDS011;44330;51.360;6.686;2023-01-29T05:38:07;81.05;;;29.92;;
42662;SDS011;44330;51.360;6.686;2023-01-29T05:40:33;80.40;;;29.83;;
42662;SDS011;44330;51.360;6.686;2023-01-29T05:42:59;76.40;;;29.20;;
42662;SDS011;44330;51.360;6.686;2023-01-29T05:45:25;82.38;;;31.80;;
42662;SDS011;44330;51.360;6.686;2023-01-29T05:47:54;86.57;;;31.88;;
42662;SDS011;44330;51.360;6.686;2023-01-29T05:50:23;84.10;;;32.53;;
42662;SDS011;44330;51.360;6.686;2023-01-29T05:52:54;78.25;;;29.42;;
42662;SDS011;44330;51.360;6.686;2023-01-29T05:55:24;80.18;;;31.60;;
42662;SDS011;44330;51.360;6.686;2023-01-29T05:57:50;78.70;;;29.15;;
42662;SDS011;44330;51.360;6.686;2023-01-29T06:00:16;82.25;;;30.70;;
42662;SDS011;44330;51.360;6.686;2023-01-29T06:02:42;79.50;;;30.35;;
42662;SDS011;44330;51.360;6.686;2023-01-29T06:05:07;90.72;;;32.55;;
42662;SDS011;44330;51.360;6.686;2023-01-29T06:07:33;78.10;;;31.58;;
42662;SDS011;44330;51.360;6.686;2023-01-29T06:09:58;82.95;;;30.08;;
42662;SDS011;44330;51.360;6.686;2023-01-29T06:12:25;83.35;;;30.60;;
42662;SDS011;44330;51.360;6.686;2023-01-29T06:14:51;83.38;;;31.83;;
42662;SDS011;44330;51.360;6.686;2023-01-29T06:17:16;80.15;;;31.30;;
42662;SDS011;44330;51.360;6.686;2023-01-29T06:19:42;84.13;;;31.75;;
42662;SDS011;44330;51.360;6.686;2023-01-29T06:22:07;72.72;;;30.08;;
42662;SDS011;44330;51.360;6.686;2023-01-29T06:24:33;90.60;;;32.42;;
42662;SDS011;44330;51.360;6.686;2023-01-29T06:26:58;78.80;;;30.90;;
42662;SDS011;44330;51.360;6.686;2023-01-29T06:29:24;81.40;;;31.00;;
42662;SDS011;44330;51.360;6.686;2023-01-29T06:31:49;86.65;;;31.67;;
42662;SDS011;44330;51.360;6.686;2023-01-29T06:34:15;79.15;;;32.45;;
42662;SDS011;44330;51.360;6.686;2023-01-29T06:36:41;90.60;;;34.45;;
42662;SDS011;44330;51.360;6.686;2023-01-29T06:39:06;77.75;;;31.63;;
42662;SDS011;44330;51.360;6.686;2023-01-29T06:41:32;79.78;;;31.35;;
42662;SDS011;44330;51.360;6.686;2023-01-29T06:43:58;71.13;;;30.77;;
42662;SDS011;44330;51.360;6.686;2023-01-29T06:46:24;84.88;;;33.92;;
42662;SDS011;44330;51.360;6.686;2023-01-29T06:48:49;82.43;;;32.63;;
42662;SDS011;44330;51.360;6.686;2023-01-29T06:51:15;80.40;;;31.55;;
42662;SDS011;44330;51.360;6.686;2023-01-29T06:53:41;85.78;;;33.10;;
42662;SDS011;44330;51.360;6.686;2023-01-29T06:56:06;75.65;;;30.15;;
42662;SDS011;44330;51.360;6.686;2023-01-29T06:58:32;75.30;;;31.15;;
42662;SDS011;44330;51.360;6.686;2023-01-29T07:01:01;81.63;;;31.88;;
42662;SDS011;44330;51.360;6.686;2023-01-29T07:03:31;78.40;;;31.05;;
42662;SDS011;44330;51.360;6.686;2023-01-29T07:05:57;90.43;;;32.75;;
42662;SDS011;44330;51.360;6.686;2023-01-29T07:08:22;78.43;;;30.70;;
42662;SDS011;44330;51.360;6.686;2023-01-29T07:10:48;89.35;;;32.53;;
42662;SDS011;44330;51.360;6.686;2023-01-29T07:13:14;84.15;;;31.40;;
42662;SDS011;44330;51.360;6.686;2023-01-29T07:15:40;79.13;;;32.20;;
42662;SDS011;44330;51.360;6.686;2023-01-29T07:18:06;83.57;;;31.38;;
42662;SDS011;44330;51.360;6.686;2023-01-29T07:20:36;77.40;;;30.00;;
42662;SDS011;44330;51.360;6.686;2023-01-29T07:23:02;82.50;;;31.58;;
42662;SDS011;44330;51.360;6.686;2023-01-29T07:25:28;84.53;;;31.88;;
42662;SDS011;44330;51.360;6.686;2023-01-29T07:27:54;80.28;;;30.80;;
42662;SDS011;44330;51.360;6.686;2023-01-29T07:30:20;86.65;;;33.00;;
42662;SDS011;44330;51.360;6.686;2023-01-29T07:32:46;83.10;;;32.67;;
42662;SDS011;44330;51.360;6.686;2023-01-29T07:35:11;80.80;;;32.53;;
42662;SDS011;44330;51.360;6.686;2023-01-29T07:37:37;76.80;;;31.42;;
42662;SDS011;44330;51.360;6.686;2023-01-29T07:40:03;80.55;;;31.55;;
42662;SDS011;44330;51.360;6.686;2023-01-29T07:42:34;83.47;;;33.03;;
42662;SDS011;44330;51.360;6.686;2023-01-29T07:45:00;84.32;;;32.05;;
42662;SDS011;44330;51.360;6.686;2023-01-29T07:47:25;84.22;;;32.63;;
42662;SDS011;44330;51.360;6.686;2023-01-29T07:49:51;87.63;;;32.92;;
42662;SDS011;44330;51.360;6.686;2023-01-29T07:52:16;82.25;;;32.55;;
42662;SDS011;44330;51.360;6.686;2023-01-29T07:54:42;81.13;;;31.13;;
42662;SDS011;44330;51.360;6.686;2023-01-29T07:57:08;83.30;;;33.80;;
42662;SDS011;44330;51.360;6.686;2023-01-29T07:59:34;85.40;;;32.33;;
42662;SDS011;44330;51.360;6.686;2023-01-29T08:01:59;86.88;;;33.13;;
42662;SDS011;44330;51.360;6.686;2023-01-29T08:04:24;84.43;;;31.95;;
42662;SDS011;44330;51.360;6.686;2023-01-29T08:06:50;88.47;;;33.47;;
42662;SDS011;44330;51.360;6.686;2023-01-29T08:09:15;83.07;;;32.88;;
42662;SDS011;44330;51.360;6.686;2023-01-29T08:11:41;82.75;;;33.55;;
42662;SDS011;44330;51.360;6.686;2023-01-29T08:14:07;81.88;;;33.00;;
42662;SDS011;44330;51.360;6.686;2023-01-29T08:16:33;84.57;;;32.60;;
42662;SDS011;44330;51.360;6.686;2023-01-29T08:19:00;81.78;;;31.73;;
42662;SDS011;44330;51.360;6.686;2023-01-29T08:21:26;81.03;;;32.88;;
42662;SDS011;44330;51.360;6.686;2023-01-29T08:23:51;79.47;;;32.30;;
42662;SDS011;44330;51.360;6.686;2023-01-29T08:26:17;83.40;;;32.22;;
42662;SDS011;44330;51.360;6.686;2023-01-29T08:28:42;91.90;;;31.98;;
42662;SDS011;44330;51.360;6.686;2023-01-29T08:31:15;89.72;;;32.35;;
42662;SDS011;44330;51.360;6.686;2023-01-29T08:33:46;64.18;;;27.52;;
42662;SDS011;44330;51.360;6.686;2023-01-29T08:36:12;72.60;;;31.58;;
42662;SDS011;44330;51.360;6.686;2023-01-29T08:38:38;83.35;;;32.45;;
42662;SDS011;44330;51.360;6.686;2023-01-29T08:41:04;77.85;;;31.35;;
42662;SDS011;44330;51.360;6.686;2023-01-29T08:43:30;80.57;;;32.55;;
42662;SDS011;44330;51.360;6.686;2023-01-29T08:45:55;79.90;;;32.53;;
42662;SDS011;44330;51.360;6.686;2023-01-29T08:48:21;82.32;;;32.92;;
42662;SDS011;44330;51.360;6.686;2023-01-29T08:50:47;84.82;;;33.28;;
42662;SDS011;44330;51.360;6.686;2023-01-29T08:53:12;79.32;;;32.65;;
42662;SDS011;44330;51.360;6.686;2023-01-29T08:55:38;91.75;;;34.67;;
42662;SDS011;44330;51.360;6.686;2023-01-29T08:58:05;86.05;;;34.38;;
42662;SDS011;44330;51.360;6.686;2023-01-29T09:00:31;84.28;;;32.97;;
42662;SDS011;44330;51.360;6.686;2023-01-29T09:02:57;76.00;;;28.63;;
42662;SDS011;44330;51.360;6.686;2023-01-29T09:05:26;82.50;;;33.45;;
42662;SDS011;44330;51.360;6.686;2023-01-29T09:07:52;77.35;;;30.05;;
42662;SDS011;44330;51.360;6.686;2023-01-29T09:10:18;88.07;;;33.17;;
42662;SDS011;44330;51.360;6.686;2023-01-29T09:12:44;81.72;;;31.95;;
42662;SDS011;44330;51.360;6.686;2023-01-29T09:15:09;80.60;;;34.78;;
42662;SDS011;44330;51.360;6.686;2023-01-29T09:17:35;80.10;;;34.08;;
42662;SDS011;44330;51.360;6.686;2023-01-29T09:20:01;81.43;;;32.03;;
42662;SDS011;44330;51.360;6.686;2023-01-29T09:22:27;90.95;;;34.35;;
42662;SDS011;44330;51.360;6.686;2023-01-29T09:24:52;82.60;;;33.13;;
42662;SDS011;44330;51.360;6.686;2023-01-29T09:27:18;79.65;;;31.90;;
42662;SDS011;44330;51.360;6.686;2023-01-29T09:29:44;84.07;;;32.17;;
42662;SDS011;44330;51.360;6.686;2023-01-29T09:32:09;78.70;;;32.60;;
42662;SDS011;44330;51.360;6.686;2023-01-29T09:34:35;84.25;;;33.88;;
42662;SDS011;44330;51.360;6.686;2023-01-29T09:37:00;82.40;;;33.10;;
42662;SDS011;44330;51.360;6.686;2023-01-29T09:39:26;74.80;;;31.52;;
42662;SDS011;44330;51.360;6.686;2023-01-29T09:44:52;74.82;;;32.78;;
42662;SDS011;44330;51.360;6.686;2023-01-29T09:47:34;79.55;;;32.80;;
42662;SDS011;44330;51.360;6.686;2023-01-29T09:50:16;76.30;;;31.30;;
42662;SDS011;44330;51.360;6.686;2023-01-29T09:52:50;85.07;;;33.22;;
42662;SDS011;44330;51.360;6.686;2023-01-29T09:55:36;85.38;;;33.42;;
42662;SDS011;44330;51.360;6.686;2023-01-29T10:00:58;74.75;;;31.27;;
42662;SDS011;44330;51.360;6.686;2023-01-29T10:03:53;77.78;;;33.05;;
42662;SDS011;44330;51.360;6.686;2023-01-29T10:20:52;82.43;;;32.28;;
42662;SDS011;44330;51.360;6.686;2023-01-29T10:23:37;73.45;;;31.05;;
42662;SDS011;44330;51.360;6.686;2023-01-29T10:26:18;77.50;;;31.95;;
42662;SDS011;44330;51.360;6.686;2023-01-29T10:28:48;81.18;;;32.42;;
42662;SDS011;44330;51.360;6.686;2023-01-29T10:31:27;74.10;;;31.27;;
42662;SDS011;44330;51.360;6.686;2023-01-29T10:34:00;82.72;;;33.58;;
42662;SDS011;44330;51.360;6.686;2023-01-29T10:36:38;75.72;;;31.83;;
42662;SDS011;44330;51.360;6.686;2023-01-29T10:39:10;74.40;;;30.55;;
42662;SDS011;44330;51.360;6.686;2023-01-29T10:44:36;68.57;;;29.77;;
42662;SDS011;44330;51.360;6.686;2023-01-29T10:47:36;78.90;;;32.00;;
42662;SDS011;44330;51.360;6.686;2023-01-29T10:53:00;79.55;;;31.27;;
42662;SDS011;44330;51.360;6.686;2023-01-29T10:58:57;75.22;;;31.95;;
42662;SDS011;44330;51.360;6.686;2023-01-29T11:01:16;73.95;;;30.08;;
42662;SDS011;44330;51.360;6.686;2023-01-29T11:03:42;74.05;;;31.58;;
42662;SDS011;44330;51.360;6.686;2023-01-29T11:06:23;75.13;;;31.92;;
42662;SDS011;44330;51.360;6.686;2023-01-29T11:14:12;76.82;;;31.52;;
42662;SDS011;44330;51.360;6.686;2023-01-29T11:16:44;74.68;;;32.03;;
42662;SDS011;44330;51.360;6.686;2023-01-29T11:19:11;79.03;;;31.40;;
42662;SDS011;44330;51.360;6.686;2023-01-29T11:24:17;74.03;;;31.60;;
42662;SDS011;44330;51.360;6.686;2023-01-29T11:26:44;70.72;;;29.35;;
42662;SDS011;44330;51.360;6.686;2023-01-29T11:37:39;69.03;;;30.10;;
42662;SDS011;44330;51.360;6.686;2023-01-29T11:40:28;74.57;;;30.40;;
42662;SDS011;44330;51.360;6.686;2023-01-29T11:43:08;71.82;;;30.23;;
42662;SDS011;44330;51.360;6.686;2023-01-29T11:45:35;75.15;;;30.75;;
42662;SDS011;44330;51.360;6.686;2023-01-29T11:48:04;70.68;;;30.50;;
42662;SDS011;44330;51.360;6.686;2023-01-29T11:50:35;74.28;;;29.42;;
42662;SDS011;44330;51.360;6.686;2023-01-29T11:53:01;71.90;;;30.55;;
42662;SDS011;44330;51.360;6.686;2023-01-29T11:55:30;66.60;;;29.20;;
42662;SDS011;44330;51.360;6.686;2023-01-29T11:58:03;64.50;;;27.58;;
42662;SDS011;44330;51.360;6.686;2023-01-29T12:00:36;74.47;;;29.20;;
42662;SDS011;44330;51.360;6.686;2023-01-29T12:03:13;66.80;;;28.83;;
42662;SDS011;44330;51.360;6.686;2023-01-29T12:05:54;66.82;;;28.40;;
42662;SDS011;44330;51.360;6.686;2023-01-29T12:08:28;71.32;;;27.85;;
42662;SDS011;44330;51.360;6.686;2023-01-29T12:11:33;66.15;;;28.27;;
42662;SDS011;44330;51.360;6.686;2023-01-29T12:13:54;65.70;;;28.63;;
42662;SDS011;44330;51.360;6.686;2023-01-29T12:16:30;69.93;;;29.15;;
42662;SDS011;44330;51.360;6.686;2023-01-29T12:24:22;63.25;;;27.58;;
42662;SDS011;44330;51.360;6.686;2023-01-29T12:27:01;63.67;;;27.45;;
42662;SDS011;44330;51.360;6.686;2023-01-29T12:29:39;63.35;;;27.40;;
42662;SDS011;44330;51.360;6.686;2023-01-29T12:32:08;71.25;;;28.58;;
42662;SDS011;44330;51.360;6.686;2023-01-29T12:34:44;68.75;;;30.30;;
42662;SDS011;44330;51.360;6.686;2023-01-29T12:37:24;63.28;;;27.45;;
42662;SDS011;44330;51.360;6.686;2023-01-29T12:40:00;66.30;;;28.50;;
42662;SDS011;44330;51.360;6.686;2023-01-29T12:42:26;66.93;;;27.85;;
42662;SDS011;44330;51.360;6.686;2023-01-29T12:44:56;66.75;;;28.17;;
42662;SDS011;44330;51.360;6.686;2023-01-29T12:47:34;61.65;;;28.70;;
42662;SDS011;44330;51.360;6.686;2023-01-29T12:50:26;63.88;;;28.02;;
42662;SDS011;44330;51.360;6.686;2023-01-29T12:55:49;69.80;;;28.83;;
42662;SDS011;44330;51.360;6.686;2023-01-29T12:58:45;60.00;;;26.75;;
42662;SDS011;44330;51.360;6.686;2023-01-29T13:01:13;64.25;;;27.25;;
42662;SDS011;44330;51.360;6.686;2023-01-29T13:03:45;60.90;;;25.75;;
42662;SDS011;44330;51.360;6.686;2023-01-29T13:06:36;68.45;;;27.70;;
42662;SDS011;44330;51.360;6.686;2023-01-29T13:09:08;68.35;;;28.40;;
42662;SDS011;44330;51.360;6.686;2023-01-29T13:14:20;58.65;;;25.48;;
42662;SDS011;44330;51.360;6.686;2023-01-29T13:16:51;65.63;;;28.55;;
42662;SDS011;44330;51.360;6.686;2023-01-29T13:19:37;70.25;;;28.67;;
42662;SDS011;44330;51.360;6.686;2023-01-29T13:22:15;61.65;;;26.50;;
42662;SDS011;44330;51.360;6.686;2023-01-29T13:24:47;63.47;;;26.63;;
42662;SDS011;44330;51.360;6.686;2023-01-29T13:27:17;61.97;;;28.50;;
42662;SDS011;44330;51.360;6.686;2023-01-29T13:29:52;66.20;;;28.77;;
42662;SDS011;44330;51.360;6.686;2023-01-29T13:32:20;60.60;;;26.10;;
42662;SDS011;44330;51.360;6.686;2023-01-29T13:34:57;60.08;;;27.45;;
42662;SDS011;44330;51.360;6.686;2023-01-29T13:37:31;59.80;;;26.42;;
42662;SDS011;44330;51.360;6.686;2023-01-29T13:40:03;64.80;;;28.65;;
42662;SDS011;44330;51.360;6.686;2023-01-29T13:45:04;59.28;;;27.38;;
42662;SDS011;44330;51.360;6.686;2023-01-29T13:47:33;53.97;;;23.83;;
42662;SDS011;44330;51.360;6.686;2023-01-29T13:50:07;56.25;;;25.27;;
42662;SDS011;44330;51.360;6.686;2023-01-29T14:02:45;66.57;;;28.05;;
42662;SDS011;44330;51.360;6.686;2023-01-29T14:07:56;57.63;;;24.52;;
42662;SDS011;44330;51.360;6.686;2023-01-29T14:10:29;59.10;;;25.45;;
42662;SDS011;44330;51.360;6.686;2023-01-29T14:15:28;54.67;;;24.40;;
42662;SDS011;44330;51.360;6.686;2023-01-29T14:18:01;60.28;;;26.45;;
42662;SDS011;44330;51.360;6.686;2023-01-29T14:20:31;55.65;;;23.17;;
42662;SDS011;44330;51.360;6.686;2023-01-29T14:23:01;54.72;;;23.02;;
42662;SDS011;44330;51.360;6.686;2023-01-29T14:25:31;48.00;;;22.80;;
42662;SDS011;44330;51.360;6.686;2023-01-29T14:28:01;51.28;;;22.60;;
42662;SDS011;44330;51.360;6.686;2023-01-29T14:30:31;52.47;;;22.85;;
42662;SDS011;44330;51.360;6.686;2023-01-29T14:32:59;56.17;;;24.65;;
42662;SDS011;44330;51.360;6.686;2023-01-29T14:35:26;54.55;;;22.58;;
42662;SDS011;44330;51.360;6.686;2023-01-29T14:37:57;52.92;;;21.90;;
42662;SDS011;44330;51.360;6.686;2023-01-29T14:40:26;46.38;;;20.70;;
42662;SDS011;44330;51.360;6.686;2023-01-29T14:45:34;45.65;;;20.65;;
42662;SDS011;44330;51.360;6.686;2023-01-29T14:56:27;47.78;;;20.88;;
42662;SDS011;44330;51.360;6.686;2023-01-29T14:58:50;42.78;;;20.08;;
42662;SDS011;44330;51.360;6.686;2023-01-29T15:01:22;43.47;;;19.58;;
42662;SDS011;44330;51.360;6.686;2023-01-29T15:03:52;48.92;;;20.92;;
42662;SDS011;44330;51.360;6.686;2023-01-29T15:06:32;43.65;;;21.25;;
42662;SDS011;44330;51.360;6.686;2023-01-29T15:09:11;47.70;;;20.60;;
42662;SDS011;44330;51.360;6.686;2023-01-29T15:14:51;45.72;;;18.80;;
42662;SDS011;44330;51.360;6.686;2023-01-29T15:20:19;44.53;;;18.65;;
42662;SDS011;44330;51.360;6.686;2023-01-29T15:23:02;41.00;;;19.02;;
42662;SDS011;44330;51.360;6.686;2023-01-29T15:25:47;43.47;;;18.85;;
42662;SDS011;44330;51.360;6.686;2023-01-29T15:28:15;42.80;;;18.15;;
42662;SDS011;44330;51.360;6.686;2023-01-29T15:30:41;49.85;;;20.35;;
42662;SDS011;44330;51.360;6.686;2023-01-29T15:33:08;45.72;;;19.48;;
42662;SDS011;44330;51.360;6.686;2023-01-29T15:35:44;42.30;;;19.42;;
42662;SDS011;44330;51.360;6.686;2023-01-29T15:38:21;51.78;;;20.02;;
42662;SDS011;44330;51.360;6.686;2023-01-29T15:40:56;45.45;;;19.50;;
42662;SDS011;44330;51.360;6.686;2023-01-29T15:43:24;43.00;;;18.23;;
42662;SDS011;44330;51.360;6.686;2023-01-29T15:45:52;50.15;;;20.08;;
42662;SDS011;44330;51.360;6.686;2023-01-29T15:48:24;49.03;;;18.73;;
42662;SDS011;44330;51.360;6.686;2023-01-29T15:50:55;40.33;;;19.38;;
42662;SDS011;44330;51.360;6.686;2023-01-29T15:53:24;41.30;;;18.35;;
42662;SDS011;44330;51.360;6.686;2023-01-29T15:55:54;44.53;;;21.00;;
42662;SDS011;44330;51.360;6.686;2023-01-29T15:58:23;37.72;;;16.33;;
42662;SDS011;44330;51.360;6.686;2023-01-29T16:00:55;43.50;;;18.88;;
42662;SDS011;44330;51.360;6.686;2023-01-29T16:03:24;44.80;;;20.83;;
42662;SDS011;44330;51.360;6.686;2023-01-29T16:05:52;33.97;;;15.23;;
42662;SDS011;44330;51.360;6.686;2023-01-29T16:08:19;45.53;;;19.80;;
42662;SDS011;44330;51.360;6.686;2023-01-29T16:10:48;38.50;;;18.83;;
42662;SDS011;44330;51.360;6.686;2023-01-29T16:13:21;45.03;;;19.67;;
42662;SDS011;44330;51.360;6.686;2023-01-29T16:15:56;45.13;;;19.90;;
42662;SDS011;44330;51.360;6.686;2023-01-29T16:18:34;45.05;;;20.02;;
42662;SDS011;44330;51.360;6.686;2023-01-29T16:21:05;46.25;;;19.48;;
42662;SDS011;44330;51.360;6.686;2023-01-29T16:23:41;45.45;;;19.65;;
42662;SDS011;44330;51.360;6.686;2023-01-29T16:26:12;44.25;;;19.08;;
42662;SDS011;44330;51.360;6.686;2023-01-29T16:28:42;44.03;;;19.30;;
42662;SDS011;44330;51.360;6.686;2023-01-29T16:31:09;46.95;;;20.02;;
42662;SDS011;44330;51.360;6.686;2023-01-29T16:33:36;51.42;;;19.33;;
42662;SDS011;44330;51.360;6.686;2023-01-29T16:36:39;42.72;;;19.65;;
42662;SDS011;44330;51.360;6.686;2023-01-29T16:39:00;43.00;;;18.95;;
42662;SDS011;44330;51.360;6.686;2023-01-29T16:41:39;48.38;;;20.85;;
42662;SDS011;44330;51.360;6.686;2023-01-29T16:46:46;46.00;;;19.67;;
42662;SDS011;44330;51.360;6.686;2023-01-29T16:51:54;42.97;;;19.75;;
42662;SDS011;44330;51.360;6.686;2023-01-29T16:54:23;45.67;;;19.63;;
42662;SDS011;44330;51.360;6.686;2023-01-29T16:56:59;46.50;;;20.05;;
42662;SDS011;44330;51.360;6.686;2023-01-29T17:02:02;43.40;;;19.75;;
42662;SDS011;44330;51.360;6.686;2023-01-29T17:04:28;50.95;;;21.77;;
42662;SDS011;44330;51.360;6.686;2023-01-29T17:06:55;43.30;;;20.00;;
42662;SDS011;44330;51.360;6.686;2023-01-29T17:09:23;50.83;;;21.23;;
42662;SDS011;44330;51.360;6.686;2023-01-29T17:11:52;48.30;;;21.92;;
42662;SDS011;44330;51.360;6.686;2023-01-29T17:14:22;46.08;;;21.65;;